createdAt,value
2018-02-01T00:00:35.972Z,99544.95
2018-02-01T00:03:02.147Z,99558.97
2018-02-01T00:05:28.375Z,99548.12
2018-02-01T00:07:54.599Z,99540.32
2018-02-01T00:10:21.038Z,99541.52
2018-02-01T00:12:47.247Z,99547.09
2018-02-01T00:15:13.817Z,99552.16
2018-02-01T00:17:39.991Z,99538.69
2018-02-01T00:20:06.183Z,99532.41
2018-02-01T00:22:32.435Z,99535.63
2018-02-01T00:24:58.614Z,99544.14
2018-02-01T00:27:24.801Z,99536.83
2018-02-01T00:29:51.037Z,99532.08
2018-02-01T00:32:17.294Z,99532.25
2018-02-01T00:34:43.490Z,99535.84
2018-02-01T00:37:09.748Z,99538.47
2018-02-01T00:39:36.011Z,99533.27
2018-02-01T00:42:02.193Z,99536.44
2018-02-01T00:44:28.373Z,99539.89
2018-02-01T00:46:54.660Z,99534.37
2018-02-01T00:49:20.827Z,99536.66
2018-02-01T00:51:46.990Z,99527.38
2018-02-01T00:54:13.532Z,99520.14
2018-02-01T00:56:39.733Z,99513.49
2018-02-01T00:59:05.950Z,99513.49
2018-02-01T01:01:32.198Z,99516.55
2018-02-01T01:03:58.432Z,99515.72
2018-02-01T01:06:24.989Z,99516.60
2018-02-01T01:08:51.477Z,99518.88
2018-02-01T01:11:17.667Z,99523.30
2018-02-01T01:13:44.283Z,99525.05
2018-02-01T01:16:10.484Z,99529.95
2018-02-01T01:18:36.659Z,99525.69
2018-02-01T01:21:02.956Z,99522.69
2018-02-01T01:23:29.225Z,99522.27
2018-02-01T01:25:55.393Z,99521.00
2018-02-01T01:28:21.636Z,99504.92
2018-02-01T01:30:47.836Z,99506.32
2018-02-01T01:33:14.024Z,99520.23
2018-02-01T01:35:40.235Z,99509.33
2018-02-01T01:38:06.442Z,99503.72
2018-02-01T01:40:32.692Z,99508.50
2018-02-01T01:42:58.886Z,99519.09
2018-02-01T01:45:25.410Z,99516.80
2018-02-01T01:47:51.644Z,99513.81
2018-02-01T01:50:17.803Z,99510.20
2018-02-01T01:52:44.022Z,99512.44
2018-02-01T01:55:10.530Z,99507.14
2018-02-01T01:57:36.729Z,99511.13
2018-02-01T02:00:02.941Z,99506.39
2018-02-01T02:02:29.159Z,99501.55
2018-02-01T02:04:55.375Z,99496.02
2018-02-01T02:07:21.973Z,99502.94
2018-02-01T02:09:48.174Z,99496.02
2018-02-01T02:12:14.347Z,99495.98
2018-02-01T02:14:40.562Z,99488.94
2018-02-01T02:17:06.782Z,99495.00
2018-02-01T02:19:32.964Z,99484.67
2018-02-01T02:21:59.474Z,99482.12
2018-02-01T02:24:25.663Z,99480.00
2018-02-01T02:26:51.843Z,99478.78
2018-02-01T02:29:18.058Z,99481.25
2018-02-01T02:31:44.260Z,99476.13
2018-02-01T02:34:10.828Z,99481.24
2018-02-01T02:36:37.326Z,99479.55
2018-02-01T02:39:03.619Z,99474.48
2018-02-01T02:41:29.854Z,99477.53
2018-02-01T02:43:56.042Z,99473.61
2018-02-01T02:46:22.461Z,99480.05
2018-02-01T02:48:48.680Z,99480.09
2018-02-01T02:51:15.103Z,99475.30
2018-02-01T02:53:41.333Z,99476.61
2018-02-01T02:56:07.767Z,99481.80
2018-02-01T02:58:33.969Z,99477.38
2018-02-01T03:01:00.200Z,99473.82
2018-02-01T03:03:26.367Z,99475.67
2018-02-01T03:05:52.561Z,99476.66
2018-02-01T03:08:18.795Z,99477.48
2018-02-01T03:10:45.025Z,99470.55
2018-02-01T03:13:11.234Z,99480.59
2018-02-01T03:15:37.692Z,99473.22
2018-02-01T03:18:04.124Z,99476.02
2018-02-01T03:20:30.472Z,99478.68
2018-02-01T03:22:56.704Z,99484.84
2018-02-01T03:25:22.979Z,99493.24
2018-02-01T03:27:49.480Z,99481.18
2018-02-01T03:30:15.772Z,99480.96
2018-02-01T03:32:41.968Z,99481.88
2018-02-01T03:35:08.169Z,99483.81
2018-02-01T03:37:34.366Z,99491.59
2018-02-01T03:40:00.535Z,99491.22
2018-02-01T03:42:26.761Z,99489.63
2018-02-01T03:44:52.989Z,99490.50
2018-02-01T03:47:19.185Z,99490.08
2018-02-01T03:49:45.423Z,99494.92
2018-02-01T03:52:11.594Z,99497.53
2018-02-01T03:54:37.766Z,99488.09
2018-02-01T03:57:04.366Z,99493.28
2018-02-01T03:59:30.531Z,99491.33
2018-02-01T04:01:56.708Z,99498.58
2018-02-01T04:04:22.932Z,99500.70
2018-02-01T04:06:49.164Z,99499.83
2018-02-01T04:09:15.425Z,99500.38
2018-02-01T04:11:41.620Z,99495.31
2018-02-01T04:14:07.840Z,99495.31
2018-02-01T04:16:34.031Z,99499.72
2018-02-01T04:19:00.241Z,99492.30
2018-02-01T04:21:26.816Z,99493.28
2018-02-01T04:23:53.063Z,99492.34
2018-02-01T04:26:19.239Z,99495.41
2018-02-01T04:28:45.474Z,99492.57
2018-02-01T04:31:11.661Z,99492.57
2018-02-01T04:33:37.860Z,99498.23
2018-02-01T04:36:04.117Z,99495.19
2018-02-01T04:38:30.283Z,99499.98
2018-02-01T04:40:56.462Z,99495.63
2018-02-01T04:43:22.995Z,99500.47
2018-02-01T04:45:49.189Z,99501.34
2018-02-01T04:48:15.369Z,99503.91
2018-02-01T04:50:41.606Z,99503.84
2018-02-01T04:53:07.800Z,99499.93
2018-02-01T04:55:33.998Z,99500.02
2018-02-01T04:58:00.317Z,99502.27
2018-02-01T05:00:26.513Z,99495.28
2018-02-01T05:02:52.774Z,99496.09
2018-02-01T05:05:19.024Z,99494.36
2018-02-01T05:07:45.242Z,99496.92
2018-02-01T05:10:11.416Z,99500.51
2018-02-01T05:12:37.678Z,99494.36
2018-02-01T05:15:04.204Z,99493.49
2018-02-01T05:17:30.362Z,99500.91
2018-02-01T05:19:56.623Z,99498.72
2018-02-01T05:22:22.824Z,99494.20
2018-02-01T05:24:49.019Z,99507.66
2018-02-01T05:27:15.258Z,99506.84
2018-02-01T05:29:41.435Z,99499.88
2018-02-01T05:32:07.616Z,99501.39
2018-02-01T05:34:33.854Z,99503.09
2018-02-01T05:37:00.045Z,99511.27
2018-02-01T05:39:26.261Z,99514.23
2018-02-01T05:41:52.864Z,99505.06
2018-02-01T05:44:19.099Z,99506.60
2018-02-01T05:46:45.362Z,99511.49
2018-02-01T05:49:11.611Z,99501.52
2018-02-01T05:51:37.787Z,99506.77
2018-02-01T05:54:03.958Z,99502.50
2018-02-01T05:56:32.088Z,99506.39
2018-02-01T05:58:58.259Z,99508.17
2018-02-01T06:01:24.835Z,99496.89
2018-02-01T06:03:51.333Z,99507.36
2018-02-01T06:06:17.869Z,99506.97
2018-02-01T06:08:44.396Z,99508.71
2018-02-01T06:11:10.593Z,99513.56
2018-02-01T06:13:36.764Z,99515.31
2018-02-01T06:16:03.032Z,99517.98
2018-02-01T06:18:29.259Z,99513.73
2018-02-01T06:20:55.542Z,99515.19
2018-02-01T06:23:21.737Z,99510.01
2018-02-01T06:25:47.963Z,99508.70
2018-02-01T06:28:14.209Z,99504.82
2018-02-01T06:30:40.391Z,99514.59
2018-02-01T06:33:06.586Z,99507.94
2018-02-01T06:35:33.060Z,99515.31
2018-02-01T06:37:59.344Z,99516.66
2018-02-01T06:40:25.612Z,99515.31
2018-02-01T06:42:51.880Z,99515.31
2018-02-01T06:45:18.050Z,99517.01
2018-02-01T06:47:44.343Z,99520.10
2018-02-01T06:50:10.548Z,99523.77
2018-02-01T06:52:36.754Z,99524.75
2018-02-01T06:55:03.012Z,99528.28
2018-02-01T06:57:29.175Z,99527.47
2018-02-01T06:59:55.413Z,99523.88
2018-02-01T07:02:21.950Z,99529.19
2018-02-01T07:04:48.157Z,99544.27
2018-02-01T07:07:14.349Z,99538.47
2018-02-01T07:09:41.022Z,99534.52
2018-02-01T07:12:07.236Z,99530.33
2018-02-01T07:14:33.694Z,99542.44
2018-02-01T07:16:59.942Z,99542.38
2018-02-01T07:19:26.118Z,99549.52
2018-02-01T07:21:52.375Z,99544.27
2018-02-01T07:24:18.597Z,99546.53
2018-02-01T07:26:44.792Z,99547.98
2018-02-01T07:29:10.973Z,99550.77
2018-02-01T07:31:37.215Z,99556.48
2018-02-01T07:34:03.445Z,99544.27
2018-02-01T07:36:29.606Z,99545.09
2018-02-01T07:38:55.851Z,99547.31
2018-02-01T07:41:22.041Z,99541.12
2018-02-01T07:43:48.265Z,99542.37
2018-02-01T07:46:19.587Z,99548.05
2018-02-01T07:48:45.760Z,99548.91
2018-02-01T07:51:12.268Z,99549.34
2018-02-01T07:53:38.461Z,99556.75
2018-02-01T07:56:04.670Z,99564.66
2018-02-01T07:58:30.904Z,99558.66
2018-02-01T08:00:57.178Z,99559.10
2018-02-01T08:03:23.387Z,99550.87
2018-02-01T08:05:49.903Z,99547.86
2018-02-01T08:08:16.344Z,99544.33
2018-02-01T08:10:42.867Z,99539.19
2018-02-01T08:13:09.103Z,99541.33
2018-02-01T08:15:35.408Z,99546.27
2018-02-01T08:18:01.824Z,99545.30
2018-02-01T08:20:28.095Z,99554.45
2018-02-01T08:22:54.354Z,99554.02
2018-02-01T08:25:20.543Z,99550.16
2018-02-01T08:27:46.818Z,99555.72
2018-02-01T08:30:13.038Z,99555.28
2018-02-01T08:32:39.241Z,99559.31
2018-02-01T08:35:06.250Z,99556.09
2018-02-01T08:37:32.715Z,99544.40
2018-02-01T08:39:58.919Z,99542.80
2018-02-01T08:42:25.533Z,99549.73
2018-02-01T08:44:51.753Z,99547.83
2018-02-01T08:47:17.954Z,99541.34
2018-02-01T08:49:44.221Z,99551.80
2018-02-01T08:52:10.461Z,99554.03
2018-02-01T08:54:36.678Z,99548.53
2018-02-01T08:57:03.254Z,99552.41
2018-02-01T08:59:29.455Z,99556.66
2018-02-01T09:01:56.017Z,99558.30
2018-02-01T09:04:22.535Z,99556.05
2018-02-01T09:06:48.737Z,99561.52
2018-02-01T09:09:14.947Z,99559.29
2018-02-01T09:11:41.159Z,99570.62
2018-02-01T09:14:07.361Z,99566.64
2018-02-01T09:16:34.205Z,99562.67
2018-02-01T09:19:00.417Z,99555.97
2018-02-01T09:21:26.972Z,99562.46
2018-02-01T09:23:53.564Z,99558.48
2018-02-01T09:26:19.808Z,99559.89
2018-02-01T09:28:46.022Z,99564.55
2018-02-01T09:31:12.328Z,99565.52
2018-02-01T09:33:38.516Z,99561.66
2018-02-01T09:36:04.711Z,99565.23
2018-02-01T09:38:30.947Z,99563.50
2018-02-01T09:40:57.136Z,99567.25
2018-02-01T09:43:23.330Z,99573.81
2018-02-01T09:45:49.524Z,99558.14
2018-02-01T09:48:15.715Z,99571.19
2018-02-01T09:50:42.289Z,99553.67
2018-02-01T09:53:08.463Z,99560.94
2018-02-01T09:55:34.677Z,99563.99
2018-02-01T09:58:00.938Z,99565.25
2018-02-01T10:00:27.177Z,99561.27
2018-02-01T10:02:53.390Z,99546.92
2018-02-01T10:05:19.646Z,99549.98
2018-02-01T10:07:45.831Z,99557.02
2018-02-01T10:10:12.142Z,99557.40
2018-02-01T10:12:38.414Z,99572.19
2018-02-01T10:15:04.708Z,99560.67
2018-02-01T10:17:30.891Z,99557.89
2018-02-01T10:19:57.157Z,99561.22
2018-02-01T10:22:23.343Z,99562.38
2018-02-01T10:24:49.544Z,99574.27
2018-02-01T10:27:15.902Z,99575.30
2018-02-01T10:29:42.124Z,99565.58
2018-02-01T10:32:08.814Z,99580.36
2018-02-01T10:34:35.077Z,99581.66
2018-02-01T10:37:01.345Z,99576.55
2018-02-01T10:39:27.926Z,99584.36
2018-02-01T10:41:54.080Z,99583.88
2018-02-01T10:44:20.279Z,99578.33
2018-02-01T10:46:46.796Z,99573.03
2018-02-01T10:49:13.330Z,99581.06
2018-02-01T10:51:39.578Z,99586.59
2018-02-01T10:54:05.805Z,99591.78
2018-02-01T10:56:32.322Z,99576.73
2018-02-01T10:58:58.574Z,99587.52
2018-02-01T11:01:24.765Z,99588.22
2018-02-01T11:03:50.943Z,99591.33
2018-02-01T11:06:17.210Z,99586.09
2018-02-01T11:08:43.672Z,99583.33
2018-02-01T11:11:10.204Z,99587.80
2018-02-01T11:13:36.747Z,99594.18
2018-02-01T11:16:02.968Z,99589.64
2018-02-01T11:18:29.204Z,99584.67
2018-02-01T11:20:55.457Z,99588.70
2018-02-01T11:23:22.066Z,99598.14
2018-02-01T11:25:48.256Z,99588.53
2018-02-01T11:28:14.507Z,99591.31
2018-02-01T11:30:41.146Z,99592.84
2018-02-01T11:33:07.377Z,99591.06
2018-02-01T11:35:33.556Z,99593.84
2018-02-01T11:37:59.805Z,99591.84
2018-02-01T11:40:25.988Z,99586.26
2018-02-01T11:42:52.312Z,99587.19
2018-02-01T11:45:18.665Z,99603.19
2018-02-01T11:47:44.852Z,99595.27
2018-02-01T11:50:11.390Z,99596.12
2018-02-01T11:52:37.682Z,99599.13
2018-02-01T11:55:03.883Z,99590.51
2018-02-01T11:57:30.133Z,99588.47
2018-02-01T11:59:56.391Z,99576.89
2018-02-01T12:02:22.578Z,99580.94
2018-02-01T12:04:48.794Z,99579.31
2018-02-01T12:07:15.314Z,99579.75
2018-02-01T12:09:41.828Z,99571.21
2018-02-01T12:12:08.029Z,99581.71
2018-02-01T12:14:34.314Z,99593.83
2018-02-01T12:17:00.536Z,99579.83
2018-02-01T12:19:26.718Z,99574.28
2018-02-01T12:21:52.964Z,99580.08
2018-02-01T12:24:19.149Z,99574.02
2018-02-01T12:26:45.349Z,99564.67
2018-02-01T12:29:11.605Z,99576.30
2018-02-01T12:31:37.818Z,99574.05
2018-02-01T12:34:04.023Z,99582.95
2018-02-01T12:36:30.302Z,99579.51
2018-02-01T12:38:56.520Z,99577.06
2018-02-01T12:41:22.792Z,99579.47
2018-02-01T12:43:48.989Z,99576.52
2018-02-01T12:46:15.179Z,99584.66
2018-02-01T12:48:41.466Z,99588.34
2018-02-01T12:51:07.655Z,99586.75
2018-02-01T12:53:33.856Z,99588.99
2018-02-01T12:56:00.111Z,99603.02
2018-02-01T12:58:26.322Z,99590.80
2018-02-01T13:00:52.833Z,99600.47
2018-02-01T13:03:19.072Z,99597.73
2018-02-01T13:05:45.575Z,99603.57
2018-02-01T13:08:11.823Z,99593.20
2018-02-01T13:10:38.122Z,99608.47
2018-02-01T13:13:04.353Z,99605.05
2018-02-01T13:15:30.806Z,99596.48
2018-02-01T13:17:57.154Z,99600.16
2018-02-01T13:20:23.374Z,99603.39
2018-02-01T13:22:49.641Z,99603.89
2018-02-01T13:25:16.011Z,99607.47
2018-02-01T13:27:42.579Z,99602.30
2018-02-01T13:30:08.792Z,99594.98
2018-02-01T13:32:35.366Z,99594.16
2018-02-01T13:35:01.867Z,99600.60
2018-02-01T13:37:28.149Z,99594.92
2018-02-01T13:39:54.638Z,99580.97
2018-02-01T13:42:20.866Z,99582.75
2018-02-01T13:44:47.083Z,99574.52
2018-02-01T13:47:13.375Z,99584.94
2018-02-01T13:49:39.551Z,99584.45
2018-02-01T13:52:05.755Z,99588.05
2018-02-01T13:54:32.302Z,99583.73
2018-02-01T13:56:58.523Z,99596.44
2018-02-01T13:59:25.122Z,99596.83
2018-02-01T14:01:51.606Z,99605.07
2018-02-01T14:04:17.842Z,99587.13
2018-02-01T14:06:44.191Z,99595.91
2018-02-01T14:09:10.386Z,99591.22
2018-02-01T14:11:36.614Z,99601.78
2018-02-01T14:14:04.031Z,99604.46
2018-02-01T14:16:30.217Z,99601.98
2018-02-01T14:18:56.445Z,99599.66
2018-02-01T14:21:23.066Z,99594.47
2018-02-01T14:23:49.279Z,99590.55
2018-02-01T14:26:15.467Z,99605.00
2018-02-01T14:28:41.719Z,99598.45
2018-02-01T14:31:07.917Z,99598.46
2018-02-01T14:33:34.120Z,99601.56
2018-02-01T14:36:00.338Z,99605.97
2018-02-01T14:38:26.624Z,99608.66
2018-02-01T14:40:52.817Z,99607.50
2018-02-01T14:43:19.095Z,99605.37
2018-02-01T14:45:45.357Z,99603.99
2018-02-01T14:48:11.544Z,99604.05
2018-02-01T14:50:38.117Z,99613.27
2018-02-01T14:53:04.305Z,99615.59
2018-02-01T14:55:30.530Z,99612.16
2018-02-01T14:57:56.797Z,99612.66
2018-02-01T15:00:23.333Z,99610.95
2018-02-01T15:02:49.553Z,99605.72
2018-02-01T15:05:16.091Z,99612.36
2018-02-01T15:07:42.279Z,99614.59
2018-02-01T15:10:08.449Z,99623.75
2018-02-01T15:12:45.331Z,99624.58
2018-02-01T15:15:11.574Z,99620.99
2018-02-01T15:17:37.784Z,99613.61
2018-02-01T15:20:04.319Z,99626.38
2018-02-01T15:22:30.562Z,99623.81
2018-02-01T15:24:56.800Z,99624.58
2018-02-01T15:27:23.045Z,99627.63
2018-02-01T15:29:49.542Z,99625.84
2018-02-01T15:32:15.764Z,99618.46
2018-02-01T15:34:42.249Z,99623.22
2018-02-01T15:37:08.480Z,99621.95
2018-02-01T15:39:34.714Z,99620.59
2018-02-01T15:42:00.939Z,99616.67
2018-02-01T15:44:33.096Z,99620.17
2018-02-01T15:46:59.336Z,99617.65
2018-02-01T15:49:25.593Z,99617.69
2018-02-01T15:51:51.822Z,99601.12
2018-02-01T15:54:18.069Z,99600.68
2018-02-01T15:56:44.597Z,99593.27
2018-02-01T15:59:10.804Z,99594.15
2018-02-01T16:01:37.324Z,99589.83
2018-02-01T16:04:03.523Z,99591.20
2018-02-01T16:06:29.749Z,99598.66
2018-02-01T16:08:56.256Z,99593.92
2018-02-01T16:11:22.442Z,99594.79
2018-02-01T16:13:48.669Z,99604.39
2018-02-01T16:16:15.224Z,99606.56
2018-02-01T16:18:41.888Z,99606.13
2018-02-01T16:21:08.098Z,99614.95
2018-02-01T16:23:34.724Z,99609.77
2018-02-01T16:26:00.923Z,99611.84
2018-02-01T16:28:27.127Z,99606.60
2018-02-01T16:30:53.343Z,99611.80
2018-02-01T16:33:19.544Z,99608.31
2018-02-01T16:35:46.137Z,99609.98
2018-02-01T16:38:12.315Z,99601.70
2018-02-01T16:40:38.549Z,99599.52
2018-02-01T16:43:04.834Z,99604.81
2018-02-01T16:45:31.054Z,99608.79
2018-02-01T16:47:57.262Z,99615.67
2018-02-01T16:50:23.876Z,99609.17
2018-02-01T16:52:50.304Z,99613.16
2018-02-01T16:55:16.497Z,99606.56
2018-02-01T16:57:42.786Z,99612.61
2018-02-01T17:00:09.001Z,99606.13
2018-02-01T17:02:35.202Z,99618.73
2018-02-01T17:05:01.464Z,99615.77
2018-02-01T17:07:27.670Z,99610.05
2018-02-01T17:09:53.872Z,99613.55
2018-02-01T17:12:20.386Z,99613.53
2018-02-01T17:14:46.621Z,99609.23
2018-02-01T17:17:13.278Z,99613.98
2018-02-01T17:19:39.495Z,99606.67
2018-02-01T17:22:05.745Z,99603.65
2018-02-01T17:24:32.270Z,99609.70
2018-02-01T17:26:58.509Z,99613.16
2018-02-01T17:29:24.952Z,99611.84
2018-02-01T17:31:51.217Z,99610.58
2018-02-01T17:34:18.310Z,99612.33
2018-02-01T17:36:45.408Z,99611.84
2018-02-01T17:39:11.911Z,99605.30
2018-02-01T17:41:38.077Z,99607.44
2018-02-01T17:44:04.253Z,99607.58
2018-02-01T17:46:30.602Z,99607.97
2018-02-01T17:48:57.238Z,99610.15
2018-02-01T17:51:23.473Z,99611.98
2018-02-01T17:53:50.109Z,99616.30
2018-02-01T17:56:16.309Z,99619.06
2018-02-01T17:58:42.521Z,99622.55
2018-02-01T18:01:08.785Z,99626.09
2018-02-01T18:03:35.005Z,99628.66
2018-02-01T18:06:01.418Z,99618.86
2018-02-01T18:08:28.008Z,99618.63
2018-02-01T18:10:54.221Z,99618.91
2018-02-01T18:13:20.747Z,99615.08
2018-02-01T18:15:47.279Z,99614.25
2018-02-01T18:18:13.917Z,99604.61
2018-02-01T18:20:40.365Z,99608.93
2018-02-01T18:23:06.608Z,99605.09
2018-02-01T18:25:33.084Z,99611.64
2018-02-01T18:27:59.765Z,99609.46
2018-02-01T18:30:26.030Z,99610.39
2018-02-01T18:32:52.249Z,99614.75
2018-02-01T18:35:18.762Z,99616.44
2018-02-01T18:40:17.919Z,99616.34
2018-02-01T18:42:44.508Z,99621.48
2018-02-01T18:45:10.730Z,99625.41
2018-02-01T18:47:37.017Z,99628.60
2018-02-01T18:50:03.265Z,99626.47
2018-02-01T18:52:29.437Z,99627.89
2018-02-01T18:54:55.647Z,99624.92
2018-02-01T18:57:21.877Z,99621.48
2018-02-01T18:59:48.114Z,99622.84
2018-02-01T19:02:14.343Z,99625.47
2018-02-01T19:04:40.615Z,99625.61
2018-02-01T19:07:06.846Z,99633.02
2018-02-01T19:09:33.076Z,99626.92
2018-02-01T19:11:59.243Z,99634.67
2018-02-01T19:14:25.502Z,99636.46
2018-02-01T19:16:52.003Z,99643.48
2018-02-01T19:19:18.330Z,99654.10
2018-02-01T19:21:44.562Z,99644.79
2018-02-01T19:24:10.993Z,99649.87
2018-02-01T19:26:37.188Z,99639.02
2018-02-01T19:29:03.769Z,99641.15
2018-02-01T19:31:30.048Z,99633.25
2018-02-01T19:33:56.516Z,99629.87
2018-02-01T19:36:22.868Z,99630.69
2018-02-01T19:38:49.036Z,99624.14
2018-02-01T19:41:15.225Z,99629.31
2018-02-01T19:43:41.500Z,99634.02
2018-02-01T19:46:07.723Z,99628.72
2018-02-01T19:48:34.281Z,99630.53
2018-02-01T19:51:00.559Z,99618.31
2018-02-01T19:53:26.805Z,99626.50
2018-02-01T19:55:53.048Z,99618.44
2018-02-01T19:58:19.382Z,99620.63
2018-02-01T20:00:45.588Z,99621.50
2018-02-01T20:03:11.852Z,99617.13
2018-02-01T20:05:38.106Z,99622.38
2018-02-01T20:08:04.342Z,99616.16
2018-02-01T20:10:30.566Z,99621.89
2018-02-01T20:12:56.771Z,99623.67
2018-02-01T20:15:23.054Z,99624.94
2018-02-01T20:17:49.250Z,99628.77
2018-02-01T20:20:15.876Z,99628.37
2018-02-01T20:22:42.104Z,99632.69
2018-02-01T20:25:08.415Z,99628.37
2018-02-01T20:27:34.606Z,99634.44
2018-02-01T20:30:00.792Z,99626.63
2018-02-01T20:32:27.323Z,99638.02
2018-02-01T20:34:53.620Z,99631.92
2018-02-01T20:37:19.808Z,99633.12
2018-02-01T20:39:46.033Z,99621.69
2018-02-01T20:42:12.705Z,99634.33
2018-02-01T20:44:38.990Z,99629.48
2018-02-01T20:47:05.615Z,99623.31
2018-02-01T20:49:31.908Z,99618.14
2018-02-01T20:51:58.159Z,99620.80
2018-02-01T20:54:24.703Z,99619.93
2018-02-01T20:56:50.954Z,99614.32
2018-02-01T20:59:17.135Z,99614.70
2018-02-01T21:01:43.707Z,99621.34
2018-02-01T21:04:09.952Z,99622.70
2018-02-01T21:06:36.190Z,99626.97
2018-02-01T21:09:02.535Z,99631.82
2018-02-01T21:11:28.803Z,99632.25
2018-02-01T21:13:55.019Z,99634.92
2018-02-01T21:16:21.228Z,99631.00
2018-02-01T21:18:47.453Z,99627.99
2018-02-01T21:21:13.639Z,99630.98
2018-02-01T21:23:39.845Z,99620.48
2018-02-01T21:26:06.174Z,99620.58
2018-02-01T21:28:32.375Z,99618.29
2018-02-01T21:30:58.637Z,99624.25
2018-02-01T21:33:24.890Z,99622.94
2018-02-01T21:35:51.112Z,99619.48
2018-02-01T21:38:17.691Z,99635.40
2018-02-01T21:40:43.970Z,99620.64
2018-02-01T21:43:10.177Z,99634.10
2018-02-01T21:45:36.812Z,99624.56
2018-02-01T21:48:03.047Z,99627.22
2018-02-01T21:50:29.355Z,99634.64
2018-02-01T21:52:55.888Z,99631.26
2018-02-01T21:55:22.103Z,99633.39
2018-02-01T21:57:48.299Z,99646.52
2018-02-01T22:00:14.548Z,99637.26
2018-02-01T22:02:40.758Z,99640.36
2018-02-01T22:05:06.959Z,99636.00
2018-02-01T22:07:33.494Z,99635.94
2018-02-01T22:09:59.733Z,99634.25
2018-02-01T22:12:25.952Z,99637.30
2018-02-01T22:14:52.587Z,99639.00
2018-02-01T22:17:18.773Z,99641.52
2018-02-01T22:19:44.977Z,99642.78
2018-02-01T22:22:11.318Z,99642.77
2018-02-01T22:24:37.750Z,99646.59
2018-02-01T22:27:03.956Z,99641.74
2018-02-01T22:29:30.374Z,99647.38
2018-02-01T22:31:56.703Z,99651.73
2018-02-01T22:34:22.926Z,99649.11
2018-02-01T22:36:49.132Z,99648.28
2018-02-01T22:39:15.379Z,99648.20
2018-02-01T22:41:41.576Z,99644.27
2018-02-01T22:44:08.104Z,99640.34
2018-02-01T22:46:34.579Z,99640.83
2018-02-01T22:49:01.024Z,99646.59
2018-02-01T22:51:27.238Z,99647.95
2018-02-01T22:53:53.785Z,99649.31
2018-02-01T22:56:20.062Z,99649.81
2018-02-01T22:58:46.290Z,99652.86
2018-02-01T23:01:12.491Z,99651.06
2018-02-01T23:03:39.085Z,99649.76
2018-02-01T23:06:05.404Z,99644.90
2018-02-01T23:08:31.607Z,99640.06
2018-02-01T23:10:57.946Z,99643.98
2018-02-01T23:13:24.583Z,99647.81
2018-02-01T23:15:51.063Z,99643.92
2018-02-01T23:18:17.245Z,99644.80
2018-02-01T23:20:43.907Z,99660.13
2018-02-01T23:23:10.104Z,99658.28
2018-02-01T23:25:36.357Z,99651.34
2018-02-01T23:28:02.970Z,99652.50
2018-02-01T23:30:29.173Z,99651.58
2018-02-01T23:32:55.416Z,99647.27
2018-02-01T23:35:21.692Z,99661.61
2018-02-01T23:37:47.935Z,99651.09
2018-02-01T23:40:14.164Z,99646.34
2018-02-01T23:42:40.440Z,99646.34
2018-02-01T23:45:06.922Z,99648.47
2018-02-01T23:47:33.146Z,99645.91
2018-02-01T23:49:59.379Z,99647.22
2018-02-01T23:52:25.571Z,99638.48
2018-02-01T23:54:51.847Z,99642.41
2018-02-01T23:57:18.441Z,99640.18
2018-02-01T23:59:44.639Z,99649.02
